Terminal Aerodrome Forecast
Issued by NWS Wilmington, OH

Home | Current Version | Previous Version | Text Only | Print | Product List | Glossary On
Versions: 1 2 3 4 5 6 7 8 9 10 11 12 13 14 15 16 17 18
000
FTUS41 KILN 011100 RRA
TAFCMH
TAF
KCMH 011142Z 0112/0212 15003KT 1 1/2SM -SNPL OVC006
      TEMPO 0112/0116 3SM -SNPL OVC015
     FM011600 20005KT 3SM -RASN OVC012
     FM012000 27006KT 3SM -SN OVC012
      TEMPO 0123/0202 1SM -SN OVC008
     FM020300 29010KT P6SM OVC012=

USA.gov is the U.S. government's official web portal to all federal, state and local government web resources and services.